Time;durP1;ratioP1;P1;durP2;ratioP2;P2;SDS_P1;SDS_P2;PMS_P1;PMS_P2;Temp;Humidity;BMP_temperature;BMP_pressure;BME280_temperature;BME280_humidity;BME280_pressure;Samples;Min_cycle;Max_cycle;Signal;HPM_P1;HPM_P2
2022/05/19 00:01:24;;;;;;;23.42;16.63;;;;;;;;;;5086805;28;20515;-63
2022/05/19 00:03:50;;;;;;;20.10;15.05;;;;;;;;;;5095505;28;20569;-64
2022/05/19 00:06:16;;;;;;;19.83;16.35;;;;;;;;;;5087315;28;20039;-64
2022/05/19 00:08:42;;;;;;;27.85;16.13;;;;;;;;;;5098145;27;20576;-64
2022/05/19 00:11:10;;;;;;;20.92;14.82;;;;;;;;;;5086447;27;20093;-64
2022/05/19 00:13:36;;;;;;;22.25;15.65;;;;;;;;;;5086600;28;20105;-64
2022/05/19 00:16:05;;;;;;;21.30;15.82;;;;;;;;;;5096843;27;20111;-64
2022/05/19 00:18:31;;;;;;;21.42;17.00;;;;;;;;;;5089641;28;20043;-63
2022/05/19 00:20:57;;;;;;;21.30;16.80;;;;;;;;;;5093363;28;20655;-64
2022/05/19 00:23:23;;;;;;;18.50;14.75;;;;;;;;;;5086092;27;20076;-64
2022/05/19 00:25:50;;;;;;;26.00;17.05;;;;;;;;;;5087304;27;20258;-64
2022/05/19 00:28:16;;;;;;;25.50;16.02;;;;;;;;;;5085801;28;20036;-64
2022/05/19 00:30:43;;;;;;;27.65;16.13;;;;;;;;;;5086659;28;20092;-64
2022/05/19 00:33:09;;;;;;;22.50;17.80;;;;;;;;;;5090956;28;20036;-64
2022/05/19 00:35:40;;;;;;;24.40;16.70;;;;;;;;;;5088855;27;20081;-64
2022/05/19 00:38:07;;;;;;;18.92;16.92;;;;;;;;;;5085926;27;20115;-64
2022/05/19 00:40:33;;;;;;;17.95;15.15;;;;;;;;;;5086280;28;20047;-63
2022/05/19 00:42:59;;;;;;;21.40;16.83;;;;;;;;;;5089699;28;20435;-64
2022/05/19 00:45:27;;;;;;;22.27;16.05;;;;;;;;;;5088043;28;20039;-64
2022/05/19 00:48:06;;;;;;;23.00;17.30;;;;;;;;;;5087094;28;20481;-64
2022/05/19 00:50:32;;;;;;;23.50;17.63;;;;;;;;;;5093182;27;20114;-64
2022/05/19 00:53:01;;;;;;;24.73;17.50;;;;;;;;;;5084340;28;20387;-64
2022/05/19 00:55:48;;;;;;;21.90;17.73;;;;;;;;;;5087871;27;20060;-64
2022/05/19 00:58:17;;;;;;;26.17;17.83;;;;;;;;;;5094435;27;20130;-64
2022/05/19 01:00:45;;;;;;;28.58;18.63;;;;;;;;;;5087643;28;21026;-64
2022/05/19 01:03:13;;;;;;;23.63;16.98;;;;;;;;;;5087349;27;20040;-64
2022/05/19 01:05:45;;;;;;;22.77;17.65;;;;;;;;;;5096714;28;20454;-64
2022/05/19 01:08:14;;;;;;;23.83;16.93;;;;;;;;;;5092873;28;20098;-64
2022/05/19 01:10:41;;;;;;;21.98;17.60;;;;;;;;;;5085922;28;20093;-63
2022/05/19 01:13:08;;;;;;;21.40;18.38;;;;;;;;;;5097675;28;20043;-64
2022/05/19 01:15:35;;;;;;;21.55;18.33;;;;;;;;;;5095310;28;20047;-64
2022/05/19 01:18:02;;;;;;;24.90;18.15;;;;;;;;;;5090536;27;20040;-65
2022/05/19 01:20:28;;;;;;;27.08;18.50;;;;;;;;;;5085830;28;20076;-64
2022/05/19 01:22:54;;;;;;;28.08;19.80;;;;;;;;;;5065717;28;20048;-64
2022/05/19 01:25:35;;;;;;;21.95;18.75;;;;;;;;;;5080008;28;20048;-64
2022/05/19 01:28:01;;;;;;;27.50;19.73;;;;;;;;;;5085466;28;20078;-64
2022/05/19 01:30:28;;;;;;;27.40;18.23;;;;;;;;;;5087293;28;20040;-64
2022/05/19 01:32:54;;;;;;;25.52;19.83;;;;;;;;;;5085092;28;20135;-64
2022/05/19 01:35:21;;;;;;;29.15;20.20;;;;;;;;;;5085088;28;20040;-64
2022/05/19 01:37:47;;;;;;;22.67;18.13;;;;;;;;;;5090442;28;20120;-64
2022/05/19 01:40:32;;;;;;;20.60;18.45;;;;;;;;;;5083463;28;20517;-64
2022/05/19 01:42:58;;;;;;;24.17;18.75;;;;;;;;;;5084365;28;20035;-63
2022/05/19 01:45:27;;;;;;;24.08;20.10;;;;;;;;;;5085437;28;20044;-64
2022/05/19 01:47:59;;;;;;;22.45;19.73;;;;;;;;;;5084103;28;20051;-64
2022/05/19 01:50:44;;;;;;;21.70;18.23;;;;;;;;;;5085251;28;20038;-63
2022/05/19 01:53:13;;;;;;;28.85;20.08;;;;;;;;;;5089574;28;20044;-64
2022/05/19 01:56:09;;;;;;;23.25;19.58;;;;;;;;;;5092428;28;20479;-64
2022/05/19 01:58:35;;;;;;;23.58;17.70;;;;;;;;;;5081213;28;20043;-63
2022/05/19 02:01:04;;;;;;;22.48;19.80;;;;;;;;;;5084164;28;20517;-64
2022/05/19 02:03:38;;;;;;;27.38;19.70;;;;;;;;;;5087410;28;20181;-64
2022/05/19 02:06:25;;;;;;;29.92;21.52;;;;;;;;;;5085302;28;20891;-64
2022/05/19 02:08:51;;;;;;;24.95;20.23;;;;;;;;;;5086688;28;20044;-64
2022/05/19 02:11:21;;;;;;;30.23;22.60;;;;;;;;;;5086172;28;20043;-64
2022/05/19 02:13:48;;;;;;;30.73;23.10;;;;;;;;;;5087150;28;20044;-64
2022/05/19 02:16:15;;;;;;;23.67;21.13;;;;;;;;;;5083442;28;20036;-64
2022/05/19 02:18:43;;;;;;;32.92;23.67;;;;;;;;;;5090214;28;20449;-64
2022/05/19 02:21:09;;;;;;;28.02;22.25;;;;;;;;;;5090511;28;20478;-64
2022/05/19 02:23:36;;;;;;;24.90;21.27;;;;;;;;;;5084552;28;20498;-64
2022/05/19 02:26:02;;;;;;;27.13;22.58;;;;;;;;;;5095675;28;20050;-64
2022/05/19 02:28:34;;;;;;;30.23;22.55;;;;;;;;;;5092631;28;20079;-64
2022/05/19 02:31:00;;;;;;;32.55;22.60;;;;;;;;;;5089483;28;20036;-64
2022/05/19 02:33:26;;;;;;;31.90;23.67;;;;;;;;;;5086792;28;20549;-63
2022/05/19 02:35:52;;;;;;;26.60;21.10;;;;;;;;;;5083900;28;20410;-64
2022/05/19 02:38:19;;;;;;;24.38;21.40;;;;;;;;;;5084245;28;20497;-64
2022/05/19 02:40:46;;;;;;;29.65;21.98;;;;;;;;;;5088048;28;20044;-64
2022/05/19 02:43:12;;;;;;;27.55;22.73;;;;;;;;;;5084335;28;20156;-64
2022/05/19 02:45:39;;;;;;;25.20;21.40;;;;;;;;;;5090168;28;20439;-64
2022/05/19 02:48:06;;;;;;;28.35;22.83;;;;;;;;;;5085825;28;20080;-64
2022/05/19 02:50:32;;;;;;;26.83;22.88;;;;;;;;;;5084943;28;20531;-64
2022/05/19 02:52:58;;;;;;;26.75;20.48;;;;;;;;;;5066941;28;20040;-64
2022/05/19 02:55:24;;;;;;;27.88;19.98;;;;;;;;;;5088137;27;20052;-63
2022/05/19 02:57:51;;;;;;;26.48;21.42;;;;;;;;;;5086728;27;20809;-64
2022/05/19 03:00:19;;;;;;;28.10;22.05;;;;;;;;;;5091384;28;20075;-63
2022/05/19 03:02:45;;;;;;;28.35;22.55;;;;;;;;;;5088687;27;20464;-64
2022/05/19 03:05:14;;;;;;;27.90;23.92;;;;;;;;;;5093383;28;20097;-63
2022/05/19 03:07:40;;;;;;;29.38;23.42;;;;;;;;;;5088796;27;20497;-64
2022/05/19 03:10:06;;;;;;;32.20;24.00;;;;;;;;;;5091521;27;20342;-64
2022/05/19 03:12:33;;;;;;;31.25;24.02;;;;;;;;;;5087585;28;20127;-64
2022/05/19 03:14:59;;;;;;;35.90;25.58;;;;;;;;;;5088404;27;20051;-63
2022/05/19 03:17:25;;;;;;;32.90;24.50;;;;;;;;;;5086541;28;20131;-64
2022/05/19 03:19:55;;;;;;;27.45;22.60;;;;;;;;;;5087754;28;20048;-63
2022/05/19 03:22:21;;;;;;;28.67;24.20;;;;;;;;;;5090429;27;20074;-64
2022/05/19 03:24:48;;;;;;;31.33;22.77;;;;;;;;;;5091278;28;20559;-64
2022/05/19 03:27:14;;;;;;;38.08;23.50;;;;;;;;;;5097078;28;20048;-64
2022/05/19 03:29:40;;;;;;;28.08;21.95;;;;;;;;;;5095102;27;20048;-64
2022/05/19 03:32:07;;;;;;;32.65;25.90;;;;;;;;;;5086105;27;20036;-63
2022/05/19 03:34:33;;;;;;;29.70;24.52;;;;;;;;;;5088532;27;20113;-64
2022/05/19 03:37:02;;;;;;;27.38;23.80;;;;;;;;;;5087395;27;20036;-64
2022/05/19 03:39:28;;;;;;;33.53;23.00;;;;;;;;;;5093545;28;20040;-63
2022/05/19 03:41:55;;;;;;;32.40;24.63;;;;;;;;;;5085798;28;20046;-64
2022/05/19 03:44:21;;;;;;;32.03;24.15;;;;;;;;;;5086542;28;20123;-64
2022/05/19 03:46:47;;;;;;;31.48;25.65;;;;;;;;;;5085834;28;20040;-63
2022/05/19 03:49:13;;;;;;;32.70;23.70;;;;;;;;;;5087783;27;20048;-64
2022/05/19 03:51:40;;;;;;;37.72;23.58;;;;;;;;;;5092244;27;20059;-64
2022/05/19 03:54:06;;;;;;;27.73;22.77;;;;;;;;;;5088467;28;20577;-64
2022/05/19 03:56:32;;;;;;;27.77;24.10;;;;;;;;;;5086008;27;20048;-64
2022/05/19 03:58:59;;;;;;;32.15;22.75;;;;;;;;;;5093346;27;20044;-64
2022/05/19 04:01:25;;;;;;;27.17;23.23;;;;;;;;;;5087091;28;20069;-63
2022/05/19 04:03:51;;;;;;;34.22;24.20;;;;;;;;;;5087699;27;20051;-63
2022/05/19 04:06:18;;;;;;;31.83;24.92;;;;;;;;;;5087962;28;20043;-63
2022/05/19 04:08:44;;;;;;;32.33;24.98;;;;;;;;;;5097853;27;20498;-64
2022/05/19 04:11:11;;;;;;;40.55;27.27;;;;;;;;;;5086477;28;20043;-63
2022/05/19 04:13:37;;;;;;;33.95;25.83;;;;;;;;;;5090204;27;20055;-64
2022/05/19 04:16:06;;;;;;;33.25;26.80;;;;;;;;;;5089173;28;20046;-63
2022/05/19 04:18:34;;;;;;;40.08;27.08;;;;;;;;;;5098160;28;20546;-63
2022/05/19 04:21:03;;;;;;;32.45;24.58;;;;;;;;;;5091360;28;20113;-64
2022/05/19 04:23:30;;;;;;;37.72;25.65;;;;;;;;;;5089939;28;20046;-64
2022/05/19 04:25:56;;;;;;;36.15;27.42;;;;;;;;;;5090931;28;20584;-64
2022/05/19 04:28:23;;;;;;;34.30;26.33;;;;;;;;;;5086190;27;20043;-64
2022/05/19 04:30:49;;;;;;;32.28;26.50;;;;;;;;;;5086417;27;20327;-64
2022/05/19 04:33:15;;;;;;;35.17;27.48;;;;;;;;;;5085625;28;20039;-64
2022/05/19 04:35:41;;;;;;;41.85;31.05;;;;;;;;;;5086662;28;20035;-63
2022/05/19 04:38:08;;;;;;;41.60;29.67;;;;;;;;;;5085156;28;20592;-64
2022/05/19 04:40:39;;;;;;;41.30;28.23;;;;;;;;;;5086735;27;20035;-64
2022/05/19 04:43:06;;;;;;;34.28;27.30;;;;;;;;;;5095158;27;20065;-64
2022/05/19 04:45:33;;;;;;;37.92;29.98;;;;;;;;;;5093261;28;20058;-64
2022/05/19 04:47:59;;;;;;;39.55;29.75;;;;;;;;;;5086562;27;20469;-64
2022/05/19 04:50:25;;;;;;;39.05;26.52;;;;;;;;;;5092751;27;20044;-63
2022/05/19 04:52:51;;;;;;;32.90;27.02;;;;;;;;;;5089109;28;20074;-64
2022/05/19 04:55:17;;;;;;;36.88;27.38;;;;;;;;;;5089076;28;20067;-64
2022/05/19 04:57:44;;;;;;;36.72;28.50;;;;;;;;;;5083806;28;20050;-64
2022/05/19 05:00:12;;;;;;;39.95;25.70;;;;;;;;;;5086017;28;20066;-64
2022/05/19 05:02:39;;;;;;;34.95;26.85;;;;;;;;;;5086988;27;20052;-64
2022/05/19 05:05:06;;;;;;;37.15;27.58;;;;;;;;;;5086631;28;20515;-64
2022/05/19 05:07:33;;;;;;;34.55;26.02;;;;;;;;;;5084991;28;20540;-64
2022/05/19 05:09:59;;;;;;;32.47;27.00;;;;;;;;;;5093948;28;20036;-63
2022/05/19 05:12:25;;;;;;;33.67;27.35;;;;;;;;;;5083810;28;20054;-64
2022/05/19 05:14:52;;;;;;;36.17;28.65;;;;;;;;;;5087501;28;20420;-64
2022/05/19 05:17:18;;;;;;;30.80;25.88;;;;;;;;;;5086747;28;20142;-63
2022/05/19 05:19:44;;;;;;;35.50;28.05;;;;;;;;;;5089233;28;20517;-64
2022/05/19 05:22:11;;;;;;;39.45;27.33;;;;;;;;;;5087078;28;20498;-64
2022/05/19 05:24:37;;;;;;;37.28;28.17;;;;;;;;;;5087861;27;20044;-64
2022/05/19 05:27:05;;;;;;;32.83;25.42;;;;;;;;;;5085308;28;20032;-64
2022/05/19 05:29:31;;;;;;;30.38;25.77;;;;;;;;;;5086961;27;20070;-64
2022/05/19 05:31:57;;;;;;;36.85;26.17;;;;;;;;;;5087392;27;20084;-64
2022/05/19 05:34:24;;;;;;;34.60;25.27;;;;;;;;;;5088196;27;20453;-64
2022/05/19 05:36:50;;;;;;;29.13;23.33;;;;;;;;;;5068077;28;20039;-64
2022/05/19 05:39:16;;;;;;;34.63;25.88;;;;;;;;;;5085817;28;20131;-64
2022/05/19 05:41:42;;;;;;;38.05;27.48;;;;;;;;;;5085704;27;20146;-64
2022/05/19 05:44:08;;;;;;;36.28;27.33;;;;;;;;;;5082528;28;20092;-65
2022/05/19 05:46:35;;;;;;;34.72;26.80;;;;;;;;;;5084470;28;20075;-64
2022/05/19 05:49:01;;;;;;;36.85;26.42;;;;;;;;;;5094102;28;20091;-64
2022/05/19 05:51:27;;;;;;;36.75;25.40;;;;;;;;;;5088885;28;20031;-64
2022/05/19 05:53:53;;;;;;;35.28;27.23;;;;;;;;;;5084114;27;20063;-64
2022/05/19 05:56:21;;;;;;;35.10;25.13;;;;;;;;;;5085885;28;20040;-64
2022/05/19 05:58:47;;;;;;;37.30;28.25;;;;;;;;;;5098361;28;20044;-64
2022/05/19 06:01:15;;;;;;;30.52;23.10;;;;;;;;;;5085111;28;20055;-64
2022/05/19 06:03:41;;;;;;;33.83;26.08;;;;;;;;;;5088385;28;20494;-64
2022/05/19 06:06:07;;;;;;;33.40;23.75;;;;;;;;;;5084978;28;20063;-64
2022/05/19 06:08:33;;;;;;;32.83;25.08;;;;;;;;;;5085637;28;20044;-64
2022/05/19 06:11:00;;;;;;;33.03;23.92;;;;;;;;;;5088769;28;20036;-64
2022/05/19 06:13:26;;;;;;;36.13;27.00;;;;;;;;;;5089825;28;20036;-64
2022/05/19 06:15:52;;;;;;;33.45;27.17;;;;;;;;;;5094508;28;20509;-64
2022/05/19 06:18:19;;;;;;;34.42;27.58;;;;;;;;;;5085019;28;20436;-64
2022/05/19 06:20:45;;;;;;;32.78;26.13;;;;;;;;;;5089141;28;20543;-64
2022/05/19 06:23:12;;;;;;;34.05;28.92;;;;;;;;;;5089737;28;20043;-64
2022/05/19 06:25:39;;;;;;;37.95;29.75;;;;;;;;;;5089696;28;20474;-67
2022/05/19 06:28:05;;;;;;;39.85;30.10;;;;;;;;;;5086035;28;20115;-67
2022/05/19 06:30:32;;;;;;;36.53;27.33;;;;;;;;;;5089758;27;20050;-67
2022/05/19 06:32:58;;;;;;;36.05;28.40;;;;;;;;;;5089781;28;20044;-67
2022/05/19 06:35:27;;;;;;;32.28;26.85;;;;;;;;;;5088959;27;20115;-67
2022/05/19 06:37:53;;;;;;;31.23;25.85;;;;;;;;;;5089127;28;20066;-67
2022/05/19 06:40:20;;;;;;;27.20;23.02;;;;;;;;;;5090926;27;20051;-67
2022/05/19 06:42:47;;;;;;;29.92;26.10;;;;;;;;;;5092866;27;20100;-66
2022/05/19 06:45:16;;;;;;;27.33;23.58;;;;;;;;;;5095575;27;20065;-67
2022/05/19 06:47:42;;;;;;;36.97;26.65;;;;;;;;;;5092517;27;20067;-67
2022/05/19 06:50:09;;;;;;;35.05;25.80;;;;;;;;;;5099074;28;20233;-67
2022/05/19 06:52:41;;;;;;;26.77;22.48;;;;;;;;;;5095679;28;20079;-67
2022/05/19 06:55:07;;;;;;;34.33;23.42;;;;;;;;;;5089658;27;20565;-66
2022/05/19 06:57:33;;;;;;;26.13;21.27;;;;;;;;;;5087610;27;20121;-66
2022/05/19 07:00:00;;;;;;;30.67;21.92;;;;;;;;;;5089463;27;20098;-66
2022/05/19 07:02:26;;;;;;;34.75;26.35;;;;;;;;;;5087270;27;20504;-66
2022/05/19 07:04:52;;;;;;;28.08;23.92;;;;;;;;;;5098156;27;20097;-67
2022/05/19 07:07:18;;;;;;;31.92;23.08;;;;;;;;;;5086687;27;20123;-67
2022/05/19 07:09:45;;;;;;;35.70;24.65;;;;;;;;;;5088593;28;20044;-67
2022/05/19 07:12:11;;;;;;;38.80;23.67;;;;;;;;;;5100272;27;20055;-67
2022/05/19 07:14:38;;;;;;;33.67;25.65;;;;;;;;;;5088323;27;20155;-67
2022/05/19 07:17:04;;;;;;;35.40;24.85;;;;;;;;;;5089762;28;20047;-67
2022/05/19 07:22:22;;;;;;;29.63;21.25;;;;;;;;;;5092933;28;20048;-67
2022/05/19 07:24:48;;;;;;;36.35;22.23;;;;;;;;;;5091647;27;20044;-67
2022/05/19 07:27:15;;;;;;;31.08;23.27;;;;;;;;;;5093290;28;20047;-67
2022/05/19 07:29:42;;;;;;;32.05;24.77;;;;;;;;;;5087647;28;20245;-68
2022/05/19 07:32:08;;;;;;;29.92;24.48;;;;;;;;;;5088171;28;20319;-67
2022/05/19 07:34:36;;;;;;;29.65;24.08;;;;;;;;;;5088030;28;20048;-67
2022/05/19 07:37:02;;;;;;;32.58;22.95;;;;;;;;;;5096893;28;20101;-68
2022/05/19 07:39:28;;;;;;;32.17;24.02;;;;;;;;;;5088665;27;20051;-68
2022/05/19 07:41:55;;;;;;;28.52;21.80;;;;;;;;;;5083963;28;20051;-68
2022/05/19 07:44:25;;;;;;;32.92;24.73;;;;;;;;;;5088106;28;20044;-68
2022/05/19 07:46:52;;;;;;;29.80;21.25;;;;;;;;;;5087344;27;20127;-68
2022/05/19 07:49:18;;;;;;;29.50;23.30;;;;;;;;;;5085925;28;20048;-68
2022/05/19 07:51:45;;;;;;;37.03;25.23;;;;;;;;;;5087466;27;20071;-68
2022/05/19 07:54:13;;;;;;;35.90;24.35;;;;;;;;;;5088759;27;20043;-68
2022/05/19 07:56:41;;;;;;;28.77;22.83;;;;;;;;;;5092064;27;20284;-68
2022/05/19 07:59:08;;;;;;;23.73;20.30;;;;;;;;;;5088594;27;20067;-68
2022/05/19 08:01:34;;;;;;;27.30;22.50;;;;;;;;;;5089684;28;20516;-68
2022/05/19 08:04:01;;;;;;;28.95;23.60;;;;;;;;;;5087652;27;20036;-68
2022/05/19 08:06:30;;;;;;;32.78;24.45;;;;;;;;;;5087106;27;20585;-65
2022/05/19 08:09:00;;;;;;;33.15;22.75;;;;;;;;;;5088821;27;20483;-67
2022/05/19 08:11:27;;;;;;;33.55;23.67;;;;;;;;;;5090897;28;20074;-67
2022/05/19 08:16:38;;;;;;;24.35;19.90;;;;;;;;;;5087279;28;20123;-67
2022/05/19 08:19:04;;;;;;;23.73;19.75;;;;;;;;;;5088787;28;20083;-67
2022/05/19 08:21:31;;;;;;;30.48;20.33;;;;;;;;;;5086696;28;20044;-67
2022/05/19 08:23:57;;;;;;;25.27;19.35;;;;;;;;;;5098653;28;20039;-67
2022/05/19 08:26:24;;;;;;;30.23;19.70;;;;;;;;;;5095270;27;20572;-67
2022/05/19 08:28:52;;;;;;;29.75;20.60;;;;;;;;;;5092879;28;20231;-67
2022/05/19 08:31:20;;;;;;;27.17;18.52;;;;;;;;;;5086848;27;20416;-67
2022/05/19 08:33:47;;;;;;;29.05;16.38;;;;;;;;;;5087504;28;20040;-67
2022/05/19 08:36:13;;;;;;;29.48;18.13;;;;;;;;;;5096953;28;20081;-68
2022/05/19 08:38:40;;;;;;;38.88;17.85;;;;;;;;;;5085558;28;20051;-67
2022/05/19 08:41:15;;;;;;;36.53;17.45;;;;;;;;;;5085500;27;20132;-67
2022/05/19 08:44:04;;;;;;;24.65;15.48;;;;;;;;;;5093139;28;20047;-67
2022/05/19 08:46:32;;;;;;;27.77;18.02;;;;;;;;;;5085927;28;20082;-67
2022/05/19 08:49:01;;;;;;;30.38;16.25;;;;;;;;;;5089345;27;20159;-67
2022/05/19 08:51:30;;;;;;;31.38;17.63;;;;;;;;;;5092744;27;20141;-67
2022/05/19 08:53:58;;;;;;;28.95;18.30;;;;;;;;;;5084820;27;20497;-67
2022/05/19 08:56:28;;;;;;;34.33;18.48;;;;;;;;;;5091639;27;20040;-67
2022/05/19 08:58:58;;;;;;;38.80;21.13;;;;;;;;;;5085416;27;20149;-67
2022/05/19 09:01:33;;;;;;;30.83;18.35;;;;;;;;;;5084183;28;20056;-67
2022/05/19 09:04:12;;;;;;;28.77;17.95;;;;;;;;;;5093671;28;20044;-67
2022/05/19 09:09:51;;;;;;;24.05;16.38;;;;;;;;;;5087063;28;20143;-67
2022/05/19 09:12:22;;;;;;;27.83;17.60;;;;;;;;;;5089428;27;20042;-67
2022/05/19 09:14:48;;;;;;;32.10;19.65;;;;;;;;;;5086445;27;20119;-67
2022/05/19 09:17:15;;;;;;;28.55;18.67;;;;;;;;;;5084756;27;20047;-67
2022/05/19 09:19:44;;;;;;;31.55;19.23;;;;;;;;;;5084560;28;20202;-67
2022/05/19 09:22:15;;;;;;;33.00;19.40;;;;;;;;;;5089834;28;20044;-67
2022/05/19 09:24:43;;;;;;;27.38;19.40;;;;;;;;;;5087502;28;20043;-67
2022/05/19 09:27:10;;;;;;;30.23;18.55;;;;;;;;;;5082213;28;20040;-67
2022/05/19 09:29:37;;;;;;;22.33;18.25;;;;;;;;;;5086172;28;20040;-67
2022/05/19 09:32:12;;;;;;;31.15;19.10;;;;;;;;;;5085670;28;20050;-67
2022/05/19 09:34:38;;;;;;;27.60;18.55;;;;;;;;;;5087391;28;20549;-67
2022/05/19 09:37:10;;;;;;;29.83;20.55;;;;;;;;;;5096716;28;20102;-67
2022/05/19 09:39:45;;;;;;;23.92;17.42;;;;;;;;;;5089774;28;20036;-67
2022/05/19 09:42:13;;;;;;;26.75;20.08;;;;;;;;;;5085392;28;20378;-67
2022/05/19 09:44:48;;;;;;;31.75;20.98;;;;;;;;;;5086477;28;20419;-67
2022/05/19 09:47:17;;;;;;;25.08;18.35;;;;;;;;;;5093569;28;20112;-67
2022/05/19 09:49:49;;;;;;;29.13;21.92;;;;;;;;;;5089811;28;20040;-67
2022/05/19 09:52:22;;;;;;;24.65;18.98;;;;;;;;;;5085941;28;20043;-67
2022/05/19 09:54:53;;;;;;;27.45;20.13;;;;;;;;;;5091882;28;20055;-67
2022/05/19 09:57:23;;;;;;;27.52;18.85;;;;;;;;;;5090723;28;20421;-67
2022/05/19 09:59:52;;;;;;;29.92;20.27;;;;;;;;;;5088492;28;20044;-67
2022/05/19 10:02:22;;;;;;;26.65;20.27;;;;;;;;;;5084171;28;20039;-67
2022/05/19 10:04:50;;;;;;;37.38;20.70;;;;;;;;;;5094504;28;20050;-66
2022/05/19 10:07:22;;;;;;;29.20;18.33;;;;;;;;;;5096143;28;20048;-67
2022/05/19 10:09:48;;;;;;;20.75;17.10;;;;;;;;;;5087022;28;20166;-69
2022/05/19 10:12:21;;;;;;;25.48;20.55;;;;;;;;;;5082846;28;20490;-67
2022/05/19 10:14:49;;;;;;;26.52;21.98;;;;;;;;;;5093319;28;20040;-67
2022/05/19 10:17:30;;;;;;;25.98;23.10;;;;;;;;;;5092482;28;20031;-67
2022/05/19 10:20:03;;;;;;;28.70;23.58;;;;;;;;;;5091715;28;20040;-67
2022/05/19 10:22:30;;;;;;;26.08;22.80;;;;;;;;;;5086441;28;20050;-67
2022/05/19 10:25:02;;;;;;;26.98;21.75;;;;;;;;;;5068539;28;20082;-67
2022/05/19 10:33:09;;;;;;;25.15;20.02;;;;;;;;;;5086413;28;20040;-68
2022/05/19 10:36:02;;;;;;;26.67;21.60;;;;;;;;;;5083735;28;20044;-68
2022/05/19 10:38:44;;;;;;;26.55;20.30;;;;;;;;;;5084428;28;20101;-68
2022/05/19 10:41:25;;;;;;;24.92;20.60;;;;;;;;;;5083093;28;20789;-68
2022/05/19 10:43:57;;;;;;;22.88;20.55;;;;;;;;;;5083634;28;20512;-68
2022/05/19 10:46:27;;;;;;;31.25;21.27;;;;;;;;;;5087739;28;20056;-68
2022/05/19 10:48:53;;;;;;;27.35;21.20;;;;;;;;;;5098783;28;20047;-68
2022/05/19 10:51:42;;;;;;;25.33;20.88;;;;;;;;;;5094487;28;20058;-67
2022/05/19 10:54:27;;;;;;;22.80;20.35;;;;;;;;;;5091637;28;20074;-68
2022/05/19 10:57:07;;;;;;;24.45;20.33;;;;;;;;;;5092490;28;20481;-68
2022/05/19 10:59:39;;;;;;;24.42;19.38;;;;;;;;;;5095856;28;20051;-68
2022/05/19 11:02:24;;;;;;;21.83;19.58;;;;;;;;;;5095233;28;20141;-68
2022/05/19 11:04:56;;;;;;;24.88;19.30;;;;;;;;;;5092112;28;20039;-68
2022/05/19 11:07:33;;;;;;;18.17;15.38;;;;;;;;;;5096937;28;20040;-68
2022/05/19 11:09:59;;;;;;;23.33;15.77;;;;;;;;;;5096200;28;20421;-68
2022/05/19 11:12:41;;;;;;;18.10;15.20;;;;;;;;;;5095108;28;20477;-68
2022/05/19 11:15:25;;;;;;;17.08;14.48;;;;;;;;;;5086963;28;20100;-68
2022/05/19 11:17:56;;;;;;;22.70;14.10;;;;;;;;;;5088897;27;20036;-68
2022/05/19 11:20:31;;;;;;;15.27;13.77;;;;;;;;;;5091258;27;20077;-69
2022/05/19 11:23:30;;;;;;;13.45;11.40;;;;;;;;;;5088647;27;20562;-68
2022/05/19 11:29:11;;;;;;;15.52;13.75;;;;;;;;;;5101514;28;20179;-68
2022/05/19 11:31:42;;;;;;;14.80;12.27;;;;;;;;;;5090035;28;20548;-68
2022/05/19 11:34:30;;;;;;;18.23;12.18;;;;;;;;;;5090194;27;20489;-68
2022/05/19 11:37:04;;;;;;;12.57;9.57;;;;;;;;;;5087118;27;20066;-68
2022/05/19 11:40:02;;;;;;;10.43;8.38;;;;;;;;;;5090432;28;20040;-69
2022/05/19 11:42:39;;;;;;;7.80;7.10;;;;;;;;;;5056714;27;20082;-68
2022/05/19 11:45:09;;;;;;;10.70;7.57;;;;;;;;;;5088269;28;20453;-68
2022/05/19 11:55:53;;;;;;;10.65;7.70;;;;;;;;;;5093630;28;20170;-68
2022/05/19 11:58:27;;;;;;;12.20;8.48;;;;;;;;;;5093249;28;20036;-68
2022/05/19 12:01:02;;;;;;;11.18;9.23;;;;;;;;;;5092369;27;20032;-68
2022/05/19 12:03:28;;;;;;;11.23;9.65;;;;;;;;;;5088343;27;20043;-67
2022/05/19 12:05:54;;;;;;;13.90;10.43;;;;;;;;;;5101976;27;20039;-67
2022/05/19 12:08:28;;;;;;;12.73;11.43;;;;;;;;;;5094376;27;20046;-67
2022/05/19 12:10:57;;;;;;;15.30;12.25;;;;;;;;;;5088441;28;20101;-67
2022/05/19 12:13:32;;;;;;;14.60;13.00;;;;;;;;;;5094543;28;20079;-68
2022/05/19 12:16:06;;;;;;;20.08;13.98;;;;;;;;;;5092628;28;20622;-67
2022/05/19 12:18:32;;;;;;;17.35;15.13;;;;;;;;;;5087016;27;20036;-67
2022/05/19 12:21:01;;;;;;;20.17;15.93;;;;;;;;;;5088478;27;20079;-67
2022/05/19 12:23:32;;;;;;;22.00;18.17;;;;;;;;;;5085266;27;20044;-66
2022/05/19 12:26:05;;;;;;;26.00;15.05;;;;;;;;;;5086513;28;20039;-66
2022/05/19 12:28:33;;;;;;;20.73;14.75;;;;;;;;;;5086591;27;20043;-66
2022/05/19 12:34:10;;;;;;;14.40;12.90;;;;;;;;;;5095656;27;20055;-66
2022/05/19 12:36:42;;;;;;;14.30;12.13;;;;;;;;;;5092989;28;20508;-66
2022/05/19 12:39:11;;;;;;;13.00;9.55;;;;;;;;;;5088394;27;20122;-66
2022/05/19 12:41:39;;;;;;;12.15;10.20;;;;;;;;;;5088507;27;20044;-66
2022/05/19 12:44:24;;;;;;;14.90;9.43;;;;;;;;;;5087779;27;20039;-66
2022/05/19 12:46:57;;;;;;;10.05;8.15;;;;;;;;;;5086809;27;20042;-65
2022/05/19 12:49:28;;;;;;;12.48;7.22;;;;;;;;;;5097585;27;20040;-66
2022/05/19 12:51:58;;;;;;;11.80;9.52;;;;;;;;;;5088138;27;20048;-66
2022/05/19 12:54:26;;;;;;;10.73;7.97;;;;;;;;;;5088884;28;20043;-66
2022/05/19 12:56:55;;;;;;;10.68;7.90;;;;;;;;;;5083977;27;20406;-66
2022/05/19 12:59:33;;;;;;;12.93;8.10;;;;;;;;;;5085232;28;20036;-65
2022/05/19 13:02:06;;;;;;;9.05;7.65;;;;;;;;;;5089779;27;20158;-66
2022/05/19 13:04:32;;;;;;;9.80;7.50;;;;;;;;;;5088107;28;20047;-66
2022/05/19 13:07:14;;;;;;;12.45;7.65;;;;;;;;;;5093118;27;20111;-65
2022/05/19 13:09:40;;;;;;;9.95;7.75;;;;;;;;;;5099478;28;20090;-66
2022/05/19 13:12:11;;;;;;;10.80;7.80;;;;;;;;;;5085747;28;20039;-65
2022/05/19 13:14:42;;;;;;;13.68;7.68;;;;;;;;;;5086424;27;20032;-66
2022/05/19 13:17:19;;;;;;;8.57;6.43;;;;;;;;;;5085118;27;20571;-65
2022/05/19 13:19:46;;;;;;;10.15;6.70;;;;;;;;;;5088612;28;20437;-66
2022/05/19 13:22:30;;;;;;;8.55;6.07;;;;;;;;;;5088278;28;20104;-66
2022/05/19 13:24:56;;;;;;;10.32;5.68;;;;;;;;;;5085395;27;20032;-66
2022/05/19 13:30:23;;;;;;;10.98;6.22;;;;;;;;;;5085912;28;20040;-65
2022/05/19 13:32:50;;;;;;;10.68;6.38;;;;;;;;;;5086666;28;20059;-65
2022/05/19 13:35:18;;;;;;;9.38;6.10;;;;;;;;;;5093359;27;20397;-66
2022/05/19 13:37:46;;;;;;;9.02;6.82;;;;;;;;;;5086789;28;20044;-66
2022/05/19 13:40:18;;;;;;;9.85;6.85;;;;;;;;;;5089773;28;20446;-66
2022/05/19 13:42:55;;;;;;;10.80;7.85;;;;;;;;;;5084206;28;20468;-66
2022/05/19 13:45:23;;;;;;;8.63;6.32;;;;;;;;;;5089321;28;20396;-66
2022/05/19 13:47:51;;;;;;;7.70;5.85;;;;;;;;;;5087432;28;20048;-66
2022/05/19 13:50:20;;;;;;;9.02;6.05;;;;;;;;;;5086041;28;20047;-65
2022/05/19 13:52:50;;;;;;;7.60;6.32;;;;;;;;;;5085754;28;20538;-66
2022/05/19 13:55:25;;;;;;;7.15;5.97;;;;;;;;;;5085211;28;20088;-66
2022/05/19 13:57:52;;;;;;;6.65;5.50;;;;;;;;;;5082229;28;20043;-65
2022/05/19 14:00:19;;;;;;;7.75;5.50;;;;;;;;;;5087443;28;20032;-66
2022/05/19 14:02:45;;;;;;;7.40;6.65;;;;;;;;;;5086937;28;20044;-66
2022/05/19 14:05:21;;;;;;;7.07;5.60;;;;;;;;;;5089376;28;20432;-66
2022/05/19 14:07:49;;;;;;;6.47;5.22;;;;;;;;;;5085833;28;20458;-66
2022/05/19 14:10:16;;;;;;;8.45;6.28;;;;;;;;;;5088794;28;20036;-66
2022/05/19 14:12:45;;;;;;;7.32;6.22;;;;;;;;;;5085069;28;20142;-65
2022/05/19 14:15:19;;;;;;;8.13;5.95;;;;;;;;;;5089617;28;20068;-66
2022/05/19 14:18:00;;;;;;;6.80;6.10;;;;;;;;;;5087129;28;20040;-66
2022/05/19 14:20:43;;;;;;;9.15;6.63;;;;;;;;;;5085196;28;20486;-66
2022/05/19 14:23:17;;;;;;;8.27;6.10;;;;;;;;;;5091264;28;20040;-66
2022/05/19 14:25:44;;;;;;;6.80;5.25;;;;;;;;;;5084683;28;20111;-66
2022/05/19 14:28:22;;;;;;;8.93;5.47;;;;;;;;;;5085693;28;20149;-66
2022/05/19 14:30:51;;;;;;;7.10;5.50;;;;;;;;;;5087417;28;20043;-67
2022/05/19 14:33:21;;;;;;;7.80;5.68;;;;;;;;;;5087523;28;20539;-66
2022/05/19 14:35:54;;;;;;;8.18;4.68;;;;;;;;;;5086048;28;20040;-66
2022/05/19 14:38:25;;;;;;;7.00;4.82;;;;;;;;;;5086890;28;20508;-66
2022/05/19 14:43:38;;;;;;;6.20;4.97;;;;;;;;;;5092443;28;20799;-65
2022/05/19 14:46:04;;;;;;;6.68;4.00;;;;;;;;;;5093047;28;20048;-65
2022/05/19 14:48:36;;;;;;;5.68;4.43;;;;;;;;;;5088409;28;20042;-65
2022/05/19 14:51:03;;;;;;;6.28;5.15;;;;;;;;;;5095487;27;20226;-65
2022/05/19 14:53:30;;;;;;;6.88;5.30;;;;;;;;;;5090584;27;20408;-65
2022/05/19 14:56:02;;;;;;;6.88;4.85;;;;;;;;;;5089536;27;20127;-66
2022/05/19 14:58:33;;;;;;;9.05;5.00;;;;;;;;;;5088815;27;20036;-66
2022/05/19 15:00:59;;;;;;;5.28;4.22;;;;;;;;;;5087840;27;20043;-65
2022/05/19 15:03:25;;;;;;;13.23;5.88;;;;;;;;;;5088855;28;20538;-65
2022/05/19 15:05:53;;;;;;;6.28;4.50;;;;;;;;;;5092808;28;20044;-65
2022/05/19 15:08:19;;;;;;;4.65;3.67;;;;;;;;;;5092105;27;20032;-65